Time;durP1;ratioP1;P1;durP2;ratioP2;P2;SDS_P1;SDS_P2;PMS_P1;PMS_P2;Temp;Humidity;BMP_temperature;BMP_pressure;BME280_temperature;BME280_humidity;BME280_pressure;Samples;Min_cycle;Max_cycle;Signal;HPM_P1;HPM_P2
2022/09/11 00:01:06;;;;;;;31.90;20.98;;;15.20;99.90;;;;;;5076096;28;20207;-79
2022/09/11 00:03:32;;;;;;;32.78;20.65;;;15.40;99.90;;;;;;5077167;28;20131;-79
2022/09/11 00:06:06;;;;;;;27.92;19.17;;;15.40;99.90;;;;;;5059844;28;20131;-78
2022/09/11 00:08:32;;;;;;;26.75;19.00;;;15.40;99.90;;;;;;5076251;28;20121;-79
2022/09/11 00:11:07;;;;;;;28.00;19.17;;;15.40;99.90;;;;;;5077050;28;20044;-79
2022/09/11 00:13:34;;;;;;;27.80;19.38;;;15.40;99.90;;;;;;5077225;28;20048;-79
2022/09/11 00:16:00;;;;;;;28.25;19.17;;;15.40;99.90;;;;;;5077093;28;20044;-79
2022/09/11 00:18:28;;;;;;;25.80;18.35;;;15.20;99.90;;;;;;5075565;28;20056;-79
2022/09/11 00:20:55;;;;;;;26.42;18.70;;;15.20;99.90;;;;;;5059404;28;20087;-79
2022/09/11 00:23:23;;;;;;;31.25;19.75;;;15.30;99.90;;;;;;5075861;28;20048;-79
2022/09/11 00:25:49;;;;;;;27.45;18.92;;;15.30;99.90;;;;;;5076936;28;20048;-79
2022/09/11 00:28:21;;;;;;;27.13;18.33;;;15.30;99.90;;;;;;5076556;28;20177;-79
2022/09/11 00:31:00;;;;;;;23.73;17.40;;;15.60;99.90;;;;;;5076659;28;20365;-79
2022/09/11 00:33:26;;;;;;;27.50;19.08;;;15.30;99.90;;;;;;5076694;28;20158;-79
2022/09/11 00:36:06;;;;;;;27.13;18.73;;;15.50;99.90;;;;;;5075865;28;20514;-79
2022/09/11 00:38:34;;;;;;;27.88;18.10;;;15.50;99.90;;;;;;5075731;28;20059;-79
2022/09/11 00:41:02;;;;;;;25.75;18.10;;;15.30;99.90;;;;;;5075276;28;20052;-79
2022/09/11 00:43:48;;;;;;;26.17;19.00;;;15.40;99.90;;;;;;5074998;28;20044;-79
2022/09/11 00:46:15;;;;;;;24.40;17.80;;;15.30;99.90;;;;;;5076444;28;20040;-79
2022/09/11 00:48:42;;;;;;;27.35;19.17;;;15.30;99.90;;;;;;5076390;28;20051;-79
2022/09/11 00:51:09;;;;;;;27.40;19.17;;;15.30;99.90;;;;;;5058949;28;20036;-78
2022/09/11 00:53:36;;;;;;;29.45;19.70;;;15.30;99.90;;;;;;5075011;28;20132;-79
2022/09/11 00:56:06;;;;;;;28.85;19.67;;;15.50;99.90;;;;;;5075009;28;20552;-79
2022/09/11 00:58:38;;;;;;;26.23;18.88;;;15.30;99.90;;;;;;5076176;28;20183;-79
2022/09/11 01:01:03;;;;;;;25.80;17.63;;;15.20;99.90;;;;;;5075057;28;20048;-79
2022/09/11 01:03:31;;;;;;;25.23;18.52;;;15.20;99.90;;;;;;5076037;28;20051;-78
2022/09/11 01:05:58;;;;;;;26.50;18.63;;;15.20;99.90;;;;;;5074888;28;20464;-77
2022/09/11 01:08:24;;;;;;;27.48;19.60;;;15.20;99.90;;;;;;5073928;28;20113;-79
2022/09/11 01:11:03;;;;;;;26.05;18.23;;;15.30;99.90;;;;;;5076317;28;20048;-80
2022/09/11 01:13:42;;;;;;;25.58;18.48;;;15.20;99.90;;;;;;5075234;28;20051;-79
2022/09/11 01:16:11;;;;;;;26.35;18.60;;;15.30;99.90;;;;;;5075884;28;20484;-79
2022/09/11 01:18:54;;;;;;;25.85;17.63;;;15.20;99.90;;;;;;5075786;28;20052;-79
2022/09/11 01:21:56;;;;;;;28.58;18.92;;;15.40;99.90;;;;;;5075778;28;20135;-79
2022/09/11 01:24:40;;;;;;;22.92;17.15;;;15.20;99.90;;;;;;5064310;28;20473;-80
2022/09/11 01:27:49;;;;;;;26.05;19.05;;;15.30;99.90;;;;;;5075508;28;20051;-79
2022/09/11 01:30:20;;;;;;;25.55;17.85;;;15.20;99.90;;;;;;5040303;28;20060;-79
2022/09/11 01:33:08;;;;;;;23.50;18.13;;;15.20;99.90;;;;;;5075218;28;20515;-79
2022/09/11 01:35:44;;;;;;;26.08;18.33;;;15.30;99.90;;;;;;5074616;28;20127;-78
2022/09/11 01:38:32;;;;;;;23.42;16.67;;;15.30;99.90;;;;;;5076593;28;20053;-78
2022/09/11 01:41:11;;;;;;;22.73;16.23;;;15.60;99.90;;;;;;5075592;28;20137;-79
2022/09/11 01:43:46;;;;;;;23.33;17.10;;;15.50;99.90;;;;;;5074627;28;20488;-79
2022/09/11 01:46:21;;;;;;;23.30;16.95;;;15.40;99.90;;;;;;5075345;28;20052;-79
2022/09/11 01:48:57;;;;;;;23.38;17.08;;;15.40;99.90;;;;;;5057048;28;20040;-80
2022/09/11 01:51:27;;;;;;;23.52;16.75;;;15.40;99.90;;;;;;5075892;28;20415;-79
2022/09/11 01:53:55;;;;;;;21.77;16.33;;;15.40;99.90;;;;;;5075294;28;20055;-79
2022/09/11 01:56:29;;;;;;;21.95;16.75;;;15.30;99.90;;;;;;5073531;28;20554;-79
2022/09/11 01:59:01;;;;;;;23.92;16.20;;;15.20;99.90;;;;;;5057124;28;20045;-79
2022/09/11 02:01:31;;;;;;;22.58;16.67;;;15.40;99.90;;;;;;5074945;28;20087;-79
2022/09/11 02:04:04;;;;;;;23.00;16.65;;;15.20;99.90;;;;;;5074038;28;20052;-79
2022/09/11 02:06:39;;;;;;;;;;;15.50;99.90;;;;;;5075568;28;20103;-79
2022/09/11 02:09:09;;;;;;;21.30;16.33;;;15.20;99.90;;;;;;5074682;28;19920;-78
2022/09/11 02:11:41;;;;;;;21.52;15.80;;;15.20;99.90;;;;;;5073862;28;20045;-79
2022/09/11 02:14:29;;;;;;;23.02;16.85;;;15.40;99.90;;;;;;5073081;28;20063;-79
2022/09/11 02:17:30;;;;;;;21.75;16.15;;;15.20;99.90;;;;;;5073711;28;20098;-78
2022/09/11 02:19:59;;;;;;;22.33;16.60;;;15.10;99.90;;;;;;5016079;28;20132;-79
2022/09/11 02:22:24;;;;;;;19.83;15.52;;;15.50;99.90;;;;;;5045715;28;20056;-77
2022/09/11 02:24:51;;;;;;;19.88;15.63;;;15.30;99.90;;;;;;5073578;28;20171;-79
2022/09/11 02:27:21;;;;;;;20.00;15.70;;;15.10;99.90;;;;;;5074352;28;20047;-80
2022/09/11 02:29:47;;;;;;;21.45;15.43;;;15.40;99.90;;;;;;5073752;28;20044;-79
2022/09/11 02:32:13;;;;;;;21.10;15.90;;;15.30;99.90;;;;;;5074352;28;20404;-78
2022/09/11 02:34:40;;;;;;;22.70;15.63;;;15.40;99.90;;;;;;5040220;28;20037;-79
2022/09/11 02:37:33;;;;;;;18.83;15.07;;;15.50;99.90;;;;;;5056858;28;20050;-79
2022/09/11 02:40:25;;;;;;;21.70;15.45;;;15.70;99.90;;;;;;5073143;28;20040;-78
2022/09/11 02:43:09;;;;;;;20.60;15.15;;;15.50;99.90;;;;;;5073188;28;20102;-79
2022/09/11 02:46:00;;;;;;;20.05;16.05;;;15.70;99.90;;;;;;5073386;28;20135;-79
2022/09/11 02:48:48;;;;;;;20.20;15.63;;;15.50;99.90;;;;;;5074120;28;20093;-79
2022/09/11 02:51:48;;;;;;;19.45;15.18;;;15.40;99.90;;;;;;5073408;28;20048;-79
2022/09/11 02:54:17;;;;;;;19.58;15.02;;;15.40;99.90;;;;;;5074271;28;20048;-80
2022/09/11 02:56:46;;;;;;;20.73;15.77;;;15.60;99.90;;;;;;5073546;28;20056;-79
2022/09/11 02:59:17;;;;;;;22.30;16.10;;;15.50;99.90;;;;;;5073913;28;20127;-79
2022/09/11 03:01:54;;;;;;;19.38;14.35;;;15.50;99.90;;;;;;5073020;28;20080;-79
2022/09/11 03:04:23;;;;;;;20.42;15.10;;;15.50;99.90;;;;;;5073939;28;20433;-79
2022/09/11 03:06:51;;;;;;;20.83;15.75;;;15.50;99.90;;;;;;5073398;28;20516;-79
2022/09/11 03:09:17;;;;;;;17.63;14.48;;;15.40;99.90;;;;;;5073706;28;20049;-78
2022/09/11 03:11:44;;;;;;;20.40;14.68;;;15.20;99.90;;;;;;5073712;28;20051;-79
2022/09/11 03:14:10;;;;;;;19.00;15.10;;;15.00;99.90;;;;;;5072143;28;20052;-79
2022/09/11 03:16:35;;;;;;;21.42;14.13;;;15.30;99.90;;;;;;5073066;28;20045;-79
2022/09/11 03:19:03;;;;;;;19.98;15.05;;;15.30;99.90;;;;;;5073567;28;20504;-79
2022/09/11 03:21:28;;;;;;;20.75;15.60;;;14.90;99.90;;;;;;5073665;28;20083;-79
2022/09/11 03:23:56;;;;;;;21.27;16.13;;;15.10;99.90;;;;;;5073918;28;20080;-79
2022/09/11 03:26:22;;;;;;;20.40;15.45;;;15.20;99.90;;;;;;5072625;28;20088;-79
2022/09/11 03:28:49;;;;;;;18.52;15.18;;;15.30;99.90;;;;;;5073443;28;20040;-78
2022/09/11 03:31:15;;;;;;;20.60;15.63;;;15.00;99.90;;;;;;5071873;28;20052;-78
2022/09/11 03:33:41;;;;;;;20.40;16.20;;;15.30;99.90;;;;;;5073982;28;20057;-79
2022/09/11 03:36:08;;;;;;;21.20;15.98;;;15.10;99.90;;;;;;5056344;28;20044;-79
2022/09/11 03:38:34;;;;;;;20.75;15.10;;;14.80;99.90;;;;;;5074792;28;20044;-79
2022/09/11 03:41:01;;;;;;;19.60;15.00;;;15.10;99.90;;;;;;5072549;28;20044;-79
2022/09/11 03:43:27;;;;;;;19.73;15.35;;;15.00;99.90;;;;;;5072169;28;20049;-79
2022/09/11 03:45:53;;;;;;;19.63;15.27;;;14.90;99.90;;;;;;5074192;28;20483;-79
2022/09/11 03:48:18;;;;;;;20.63;15.60;;;14.80;99.90;;;;;;5055583;28;20476;-79
2022/09/11 03:50:45;;;;;;;17.83;14.20;;;15.00;99.90;;;;;;5073443;28;20090;-79
2022/09/11 03:53:11;;;;;;;22.65;16.58;;;14.90;99.90;;;;;;5073390;28;20094;-78
2022/09/11 03:55:37;;;;;;;18.63;14.82;;;14.80;99.90;;;;;;5073292;28;20056;-79
2022/09/11 03:58:03;;;;;;;21.88;15.30;;;14.80;99.90;;;;;;5072165;28;20443;-79
2022/09/11 04:00:29;;;;;;;20.27;14.93;;;14.80;99.90;;;;;;5072141;28;20098;-79
2022/09/11 04:02:55;;;;;;;20.27;16.20;;;14.60;99.90;;;;;;5072615;28;20040;-79
2022/09/11 04:05:24;;;;;;;21.92;14.10;;;14.70;99.90;;;;;;5072447;28;20114;-79
2022/09/11 04:07:52;;;;;;;19.55;14.88;;;14.70;99.90;;;;;;5071672;28;20136;-78
2022/09/11 04:10:19;;;;;;;21.67;15.02;;;14.70;99.90;;;;;;5072261;28;20052;-78
2022/09/11 04:12:45;;;;;;;19.35;14.70;;;14.60;99.90;;;;;;5073183;28;20074;-78
2022/09/11 04:15:11;;;;;;;20.55;14.85;;;14.80;99.90;;;;;;5071548;28;20044;-78
2022/09/11 04:17:37;;;;;;;16.70;13.77;;;14.60;99.90;;;;;;5071886;28;20041;-78
2022/09/11 04:20:04;;;;;;;20.02;15.13;;;14.60;99.90;;;;;;5073158;28;20531;-78
2022/09/11 04:22:30;;;;;;;16.80;13.95;;;14.70;99.90;;;;;;5073294;28;20056;-78
2022/09/11 04:24:56;;;;;;;17.55;14.02;;;14.40;99.90;;;;;;5073348;28;20045;-78
2022/09/11 04:27:22;;;;;;;18.45;14.07;;;14.40;99.90;;;;;;5073095;28;20044;-79
2022/09/11 04:29:49;;;;;;;17.70;14.38;;;14.70;99.90;;;;;;5071828;28;20057;-79
2022/09/11 04:32:15;;;;;;;17.45;14.30;;;14.50;99.90;;;;;;5072182;28;20044;-78
2022/09/11 04:34:40;;;;;;;19.17;14.48;;;14.60;99.90;;;;;;5072250;28;20044;-78
2022/09/11 04:37:06;;;;;;;17.92;13.93;;;14.60;99.90;;;;;;5073045;28;20537;-78
2022/09/11 04:39:33;;;;;;;17.63;14.20;;;14.30;99.90;;;;;;5071969;28;20060;-79
2022/09/11 04:42:01;;;;;;;18.15;14.50;;;14.40;99.90;;;;;;5072771;28;20124;-79
2022/09/11 04:44:31;;;;;;;18.70;13.75;;;14.40;99.90;;;;;;5074436;28;20116;-79
2022/09/11 04:46:57;;;;;;;19.00;14.52;;;14.40;99.90;;;;;;5059644;28;20382;-79
2022/09/11 04:49:22;;;;;;;18.15;14.23;;;14.60;99.90;;;;;;5058828;28;20056;-79
2022/09/11 04:51:48;;;;;;;18.65;13.38;;;14.30;99.90;;;;;;5076334;28;20076;-78
2022/09/11 04:54:16;;;;;;;15.70;12.98;;;14.30;99.90;;;;;;5076194;28;20538;-79
2022/09/11 04:56:43;;;;;;;17.80;14.38;;;14.40;99.90;;;;;;5076518;28;20051;-78
2022/09/11 04:59:21;;;;;;;17.88;14.38;;;14.40;99.90;;;;;;5075061;28;20443;-78
2022/09/11 05:01:47;;;;;;;16.95;12.93;;;14.40;99.90;;;;;;5058795;28;20389;-78
2022/09/11 05:04:14;;;;;;;14.75;13.07;;;14.50;99.90;;;;;;5058386;28;20082;-79
2022/09/11 05:06:41;;;;;;;19.30;13.13;;;14.40;99.90;;;;;;5074480;28;20061;-79
2022/09/11 05:09:09;;;;;;;16.25;13.70;;;14.20;99.90;;;;;;5074903;28;20109;-79
2022/09/11 05:11:37;;;;;;;17.67;13.90;;;14.30;99.90;;;;;;5074998;28;20059;-79
2022/09/11 05:14:02;;;;;;;16.30;13.48;;;14.40;99.90;;;;;;5075549;28;20131;-78
2022/09/11 05:16:29;;;;;;;16.38;13.38;;;14.30;99.90;;;;;;5076381;28;20505;-79
2022/09/11 05:18:56;;;;;;;17.58;13.40;;;14.30;99.90;;;;;;5075904;28;20076;-79
2022/09/11 05:21:23;;;;;;;15.07;12.57;;;14.20;99.90;;;;;;5075923;28;20515;-78
2022/09/11 05:23:51;;;;;;;17.83;13.55;;;14.30;99.90;;;;;;5058395;28;20127;-78
2022/09/11 05:26:19;;;;;;;16.23;12.68;;;14.10;99.90;;;;;;5074873;28;20052;-78
2022/09/11 05:28:44;;;;;;;16.05;12.57;;;14.30;99.90;;;;;;5075697;28;20080;-79
2022/09/11 05:31:16;;;;;;;15.32;12.98;;;14.30;99.90;;;;;;5074693;28;20429;-79
2022/09/11 05:33:43;;;;;;;14.88;11.45;;;14.30;99.90;;;;;;5074850;28;20053;-79
2022/09/11 05:36:10;;;;;;;15.25;11.13;;;14.30;99.90;;;;;;5041780;28;20053;-78
2022/09/11 05:38:37;;;;;;;13.75;10.50;;;14.20;99.90;;;;;;5074616;28;20060;-79
2022/09/11 05:41:05;;;;;;;11.80;9.63;;;14.10;99.90;;;;;;5074510;28;20087;-79
2022/09/11 05:43:32;;;;;;;13.00;10.63;;;14.20;99.90;;;;;;5073867;28;20052;-78
2022/09/11 05:45:58;;;;;;;10.98;9.48;;;14.00;99.90;;;;;;5075639;28;20074;-79
2022/09/11 05:48:26;;;;;;;13.95;11.05;;;14.20;99.90;;;;;;5075746;28;20036;-79
2022/09/11 05:51:05;;;;;;;14.63;11.77;;;14.10;99.90;;;;;;5074290;28;20426;-79
2022/09/11 05:53:32;;;;;;;17.10;12.63;;;14.10;99.90;;;;;;5074795;28;20048;-79
2022/09/11 05:56:05;;;;;;;19.25;13.48;;;14.20;99.90;;;;;;5058575;28;20053;-79
2022/09/11 05:58:31;;;;;;;20.13;11.75;;;14.20;99.90;;;;;;5075228;28;20044;-79
2022/09/11 06:01:14;;;;;;;13.52;10.63;;;14.20;99.90;;;;;;5074003;28;20485;-79
2022/09/11 06:03:40;;;;;;;;;;;14.00;99.90;;;;;;5074858;28;20083;-79
2022/09/11 06:06:08;;;;;;;12.57;11.27;;;14.10;99.90;;;;;;5073804;28;20366;-79
2022/09/11 06:08:37;;;;;;;13.43;10.95;;;14.30;99.90;;;;;;5073737;28;20056;-78
2022/09/11 06:11:07;;;;;;;13.18;11.73;;;14.50;99.90;;;;;;5074785;28;20048;-79
2022/09/11 06:13:37;;;;;;;10.63;9.55;;;14.30;99.90;;;;;;5073358;28;20401;-78
2022/09/11 06:16:04;;;;;;;11.80;10.60;;;14.50;99.90;;;;;;5073470;28;20052;-79
2022/09/11 06:18:31;;;;;;;9.80;8.80;;;14.40;99.90;;;;;;5073659;28;20446;-79
2022/09/11 06:20:58;;;;;;;9.80;8.85;;;14.50;99.90;;;;;;5074537;28;20374;-78
2022/09/11 06:23:24;;;;;;;10.43;9.43;;;14.60;99.90;;;;;;5074539;28;20557;-79
2022/09/11 06:25:53;;;;;;;11.10;10.00;;;14.80;99.90;;;;;;5074528;28;20086;-79
2022/09/11 06:28:22;;;;;;;11.48;10.30;;;14.50;99.90;;;;;;5056920;28;20049;-79
2022/09/11 06:30:51;;;;;;;10.80;9.70;;;14.50;99.90;;;;;;5056775;28;20049;-79
2022/09/11 06:33:20;;;;;;;12.80;10.02;;;14.60;99.90;;;;;;5074773;28;20083;-79
2022/09/11 06:36:00;;;;;;;14.10;10.77;;;14.60;99.90;;;;;;5073451;28;20438;-79
2022/09/11 06:38:26;;;;;;;14.10;11.80;;;14.60;99.90;;;;;;5073226;28;20416;-79
2022/09/11 06:40:53;;;;;;;13.20;11.30;;;15.00;99.90;;;;;;5074239;28;20499;-79
2022/09/11 06:43:19;;;;;;;14.00;11.85;;;15.00;99.90;;;;;;5073747;28;20139;-79
2022/09/11 06:45:48;;;;;;;18.23;14.00;;;14.90;99.90;;;;;;5074140;28;20052;-79
2022/09/11 06:48:18;;;;;;;14.20;11.48;;;15.00;99.90;;;;;;5072843;28;20477;-79
2022/09/11 06:50:44;;;;;;;17.25;13.18;;;15.30;99.90;;;;;;5074070;28;20407;-79
2022/09/11 06:53:11;;;;;;;18.00;13.13;;;15.20;99.90;;;;;;5073925;28;20048;-79
2022/09/11 06:55:39;;;;;;;20.77;15.15;;;15.10;99.90;;;;;;5073954;28;20050;-79
2022/09/11 06:58:05;;;;;;;26.40;14.13;;;15.10;99.90;;;;;;5072939;28;20131;-79
2022/09/11 07:00:33;;;;;;;22.70;15.27;;;15.30;99.90;;;;;;5073974;28;20048;-78
2022/09/11 07:03:00;;;;;;;25.27;15.30;;;15.20;99.90;;;;;;5073504;28;20045;-79
2022/09/11 07:05:27;;;;;;;28.13;16.40;;;15.30;99.90;;;;;;5071996;28;20127;-79
2022/09/11 07:07:54;;;;;;;22.15;15.73;;;15.30;99.90;;;;;;5073906;28;20100;-79
2022/09/11 07:10:21;;;;;;;18.38;14.23;;;15.40;99.90;;;;;;5073814;28;20048;-79
2022/09/11 07:12:47;;;;;;;20.02;14.60;;;15.80;99.90;;;;;;5074092;28;20127;-79
2022/09/11 07:15:13;;;;;;;21.45;14.73;;;15.60;99.90;;;;;;5072227;28;20548;-78
2022/09/11 07:17:38;;;;;;;16.38;13.30;;;15.50;99.90;;;;;;5073720;28;20086;-77
2022/09/11 07:20:07;;;;;;;19.27;14.82;;;15.90;99.90;;;;;;5073966;28;20472;-78
2022/09/11 07:22:35;;;;;;;20.08;14.38;;;15.60;99.90;;;;;;5073639;28;20056;-78
2022/09/11 07:25:02;;;;;;;22.15;15.63;;;15.50;99.90;;;;;;5072942;28;20381;-78
2022/09/11 07:27:30;;;;;;;19.30;14.38;;;15.60;99.90;;;;;;5072280;28;20484;-78
2022/09/11 07:29:56;;;;;;;20.88;14.25;;;15.90;99.90;;;;;;5073609;28;20419;-77
2022/09/11 07:32:22;;;;;;;20.55;13.57;;;15.90;99.90;;;;;;5073885;28;20045;-77
2022/09/11 07:34:48;;;;;;;19.92;14.82;;;16.00;99.90;;;;;;5076136;28;20056;-77
2022/09/11 07:37:14;;;;;;;22.13;14.30;;;16.30;99.90;;;;;;5075587;28;20044;-78
2022/09/11 07:39:40;;;;;;;18.58;13.25;;;16.30;99.90;;;;;;5073930;28;20040;-79
2022/09/11 07:42:06;;;;;;;18.63;14.88;;;16.30;99.90;;;;;;5073532;28;20045;-78
2022/09/11 07:44:33;;;;;;;16.20;13.07;;;16.30;99.90;;;;;;5072069;28;20115;-78
2022/09/11 07:46:59;;;;;;;18.95;11.73;;;16.10;99.90;;;;;;5073668;28;20045;-69
2022/09/11 07:49:26;;;;;;;14.75;11.80;;;16.20;99.90;;;;;;5073265;28;20048;-70
2022/09/11 07:51:53;;;;;;;14.85;11.85;;;16.50;99.90;;;;;;5073466;28;20044;-70
2022/09/11 07:54:19;;;;;;;16.52;12.55;;;16.30;99.90;;;;;;5072984;28;20120;-71
2022/09/11 07:56:44;;;;;;;15.93;11.23;;;16.40;99.90;;;;;;5073046;28;20045;-70
2022/09/11 07:59:10;;;;;;;17.55;12.82;;;16.70;99.90;;;;;;5072875;28;20037;-71
2022/09/11 08:01:36;;;;;;;22.42;12.93;;;16.70;99.90;;;;;;5071950;28;20041;-70
2022/09/11 08:04:05;;;;;;;17.35;12.20;;;16.60;99.90;;;;;;5072975;28;20080;-70
2022/09/11 08:06:34;;;;;;;15.80;12.15;;;16.50;99.90;;;;;;5072148;28;20065;-70
2022/09/11 08:09:03;;;;;;;17.20;12.60;;;16.80;99.90;;;;;;5073348;28;20057;-70
2022/09/11 08:11:31;;;;;;;15.73;12.10;;;16.80;99.90;;;;;;5073234;28;20602;-70
2022/09/11 08:13:57;;;;;;;14.23;11.18;;;16.70;99.90;;;;;;5072888;28;20049;-70
2022/09/11 08:16:25;;;;;;;12.35;10.75;;;16.80;99.90;;;;;;5073346;28;20148;-70
2022/09/11 08:18:52;;;;;;;14.73;10.90;;;17.00;99.90;;;;;;5077024;28;20484;-70
2022/09/11 08:21:18;;;;;;;14.57;10.63;;;17.30;99.90;;;;;;5076054;28;20111;-70
2022/09/11 08:23:44;;;;;;;12.40;9.70;;;17.30;99.90;;;;;;5077116;28;20036;-70
2022/09/11 08:26:13;;;;;;;11.18;8.30;;;17.20;99.90;;;;;;5076907;28;20064;-70
2022/09/11 08:28:41;;;;;;;12.90;8.40;;;17.20;99.90;;;;;;5077202;28;20045;-70
2022/09/11 08:31:07;;;;;;;11.60;8.10;;;17.30;99.90;;;;;;5075737;28;20091;-69
2022/09/11 08:33:33;;;;;;;9.35;6.47;;;17.30;99.90;;;;;;5077115;28;20083;-70
2022/09/11 08:36:01;;;;;;;8.88;6.20;;;17.40;99.90;;;;;;5076780;28;20051;-70
2022/09/11 08:38:27;;;;;;;7.82;4.20;;;17.50;99.90;;;;;;5073691;28;20036;-70
2022/09/11 08:40:55;;;;;;;6.88;4.95;;;17.40;99.90;;;;;;5076252;28;20045;-70
2022/09/11 08:43:38;;;;;;;6.60;4.60;;;17.70;99.90;;;;;;5075772;28;20157;-70
2022/09/11 08:46:08;;;;;;;8.05;4.65;;;17.70;99.90;;;;;;5074840;28;20475;-70
2022/09/11 08:48:42;;;;;;;7.60;5.32;;;17.60;99.90;;;;;;5075990;28;20040;-70
2022/09/11 08:51:14;;;;;;;6.45;4.88;;;17.70;99.90;;;;;;5073580;28;20047;-70
2022/09/11 08:53:39;;;;;;;7.88;5.68;;;17.60;99.90;;;;;;5076011;28;20087;-70
2022/09/11 08:56:14;;;;;;;8.10;5.35;;;17.70;99.90;;;;;;5075559;28;20080;-70
2022/09/11 08:58:46;;;;;;;5.55;4.80;;;17.90;99.90;;;;;;5075017;28;20056;-69
2022/09/11 09:01:29;;;;;;;8.10;5.65;;;17.70;99.90;;;;;;5073855;28;20047;-69
2022/09/11 09:04:29;;;;;;;3.40;2.22;;;18.00;99.90;;;;;;5081767;28;20390;-70
2022/09/11 09:06:57;;;;;;;4.60;2.22;;;18.00;99.90;;;;;;5072661;28;20106;-70
2022/09/11 09:09:52;;;;;;;6.60;3.03;;;18.00;99.90;;;;;;5075269;28;20408;-70
2022/09/11 09:12:47;;;;;;;5.65;2.28;;;18.30;99.90;;;;;;5066362;28;20075;-70
2022/09/11 09:15:16;;;;;;;3.67;2.58;;;18.30;99.90;;;;;;5068797;28;20495;-70
2022/09/11 09:17:55;;;;;;;5.13;2.83;;;18.30;99.90;;;;;;5069810;28;20128;-70
2022/09/11 09:20:28;;;;;;;5.45;3.30;;;18.30;99.90;;;;;;5068749;28;20071;-72
2022/09/11 09:23:06;;;;;;;3.63;3.00;;;18.20;99.90;;;;;;5069909;28;20067;-70
2022/09/11 09:25:38;;;;;;;4.38;2.50;;;18.40;99.90;;;;;;5069088;28;20432;-73
2022/09/11 09:28:19;;;;;;;4.65;2.30;;;18.40;99.90;;;;;;5069292;28;20460;-69
2022/09/11 09:31:13;;;;;;;2.85;1.90;;;18.20;99.90;;;;;;5068199;28;20087;-70
2022/09/11 09:34:03;;;;;;;3.25;1.98;;;18.40;99.90;;;;;;5069581;28;20092;-70
2022/09/11 09:36:36;;;;;;;3.58;1.75;;;18.30;99.90;;;;;;5070072;28;20465;-70
2022/09/11 09:39:11;;;;;;;3.53;2.00;;;18.50;99.90;;;;;;5066927;28;20492;-70
2022/09/11 09:42:09;;;;;;;3.33;1.50;;;18.50;99.90;;;;;;5069299;28;20147;-70
2022/09/11 09:45:01;;;;;;;3.22;1.80;;;18.70;99.90;;;;;;5069232;28;20049;-70
2022/09/11 09:47:28;;;;;;;2.88;2.25;;;18.50;99.90;;;;;;5067838;28;20048;-71
2022/09/11 09:49:57;;;;;;;5.70;2.17;;;18.70;99.90;;;;;;5069603;28;20413;-70
2022/09/11 09:52:25;;;;;;;3.75;1.98;;;18.70;99.90;;;;;;5068865;28;20862;-70
2022/09/11 09:55:00;;;;;;;4.80;1.60;;;19.20;99.90;;;;;;5069687;28;20075;-70
2022/09/11 09:57:33;;;;;;;2.58;1.63;;;19.10;99.90;;;;;;5066227;28;20044;-71
2022/09/11 10:00:08;;;;;;;4.00;2.42;;;18.80;99.90;;;;;;5062162;28;20492;-71
2022/09/11 10:02:42;;;;;;;4.95;2.75;;;19.00;99.90;;;;;;5066079;28;20053;-71
2022/09/11 10:05:17;;;;;;;4.25;3.00;;;19.10;99.90;;;;;;5063411;28;20838;-72
2022/09/11 10:08:00;;;;;;;3.17;1.95;;;19.00;99.90;;;;;;5063218;28;20063;-70
2022/09/11 10:10:30;;;;;;;2.33;1.90;;;18.80;99.90;;;;;;5065063;28;20078;-70
2022/09/11 10:13:17;;;;;;;3.17;1.70;;;19.20;99.90;;;;;;5066249;28;20044;-70
2022/09/11 10:15:47;;;;;;;2.13;1.20;;;19.30;99.90;;;;;;5066233;28;20048;-70
2022/09/11 10:18:34;;;;;;;6.25;3.03;;;19.00;99.90;;;;;;5067203;28;20055;-70
2022/09/11 10:21:12;;;;;;;5.32;2.63;;;19.10;99.90;;;;;;5065807;28;20048;-70
2022/09/11 10:23:57;;;;;;;5.68;2.90;;;19.00;99.90;;;;;;5064381;28;20500;-70
2022/09/11 10:26:32;;;;;;;3.17;2.22;;;19.10;99.90;;;;;;5066265;28;20447;-70
2022/09/11 10:29:13;;;;;;;4.05;1.30;;;19.40;99.90;;;;;;5066670;28;20037;-70
2022/09/11 10:31:47;;;;;;;4.05;1.00;;;19.20;99.90;;;;;;5064106;28;20504;-71
2022/09/11 10:34:21;;;;;;;4.38;1.90;;;19.10;99.90;;;;;;5064175;28;20063;-71
2022/09/11 10:36:53;;;;;;;2.00;1.60;;;19.60;99.90;;;;;;5061835;28;20806;-70
2022/09/11 10:39:20;;;;;;;;;;;19.20;99.90;;;;;;5069616;28;20052;-70
2022/09/11 10:41:53;;;;;;;4.78;2.25;;;19.10;99.90;;;;;;5067513;28;19928;-70
2022/09/11 10:44:21;;;;;;;3.63;2.22;;;19.40;99.90;;;;;;5068357;28;20048;-70
2022/09/11 10:47:13;;;;;;;4.82;2.40;;;19.00;99.90;;;;;;5068265;28;20127;-70
2022/09/11 10:49:39;;;;;;;3.45;1.80;;;19.30;99.90;;;;;;5067982;28;20048;-69
2022/09/11 10:52:08;;;;;;;3.78;1.60;;;19.10;99.90;;;;;;5066432;28;20044;-70
2022/09/11 10:54:45;;;;;;;3.22;1.20;;;19.30;99.90;;;;;;5067179;28;20161;-70
2022/09/11 10:57:43;;;;;;;2.92;0.90;;;19.30;99.90;;;;;;5066628;28;20052;-70
2022/09/11 11:00:19;;;;;;;2.10;1.17;;;19.30;99.90;;;;;;5044742;28;20074;-70
2022/09/11 11:02:53;;;;;;;1.00;0.70;;;19.60;99.90;;;;;;5066445;28;20052;-72
2022/09/11 11:05:29;;;;;;;2.30;1.25;;;19.40;99.90;;;;;;5066509;28;20060;-70
2022/09/11 11:08:19;;;;;;;2.95;1.00;;;19.50;99.90;;;;;;5065101;28;20190;-71
2022/09/11 11:10:55;;;;;;;4.00;1.00;;;19.80;99.90;;;;;;5068084;28;20447;-70
2022/09/11 11:13:34;;;;;;;1.95;0.73;;;19.40;99.90;;;;;;5069977;28;20087;-70
2022/09/11 11:16:32;;;;;;;2.28;1.00;;;19.40;99.90;;;;;;5068627;28;20048;-70
2022/09/11 11:19:31;;;;;;;2.58;0.90;;;19.50;99.90;;;;;;5064786;28;20150;-70
2022/09/11 11:22:03;;;;;;;3.65;1.17;;;19.50;99.90;;;;;;5064341;28;20102;-70
2022/09/11 11:25:11;;;;;;;2.03;1.05;;;19.50;99.90;;;;;;5067682;28;20047;-70
2022/09/11 11:27:54;;;;;;;2.35;1.13;;;19.60;99.90;;;;;;5067071;28;20052;-70
2022/09/11 11:30:27;;;;;;;2.03;1.10;;;19.60;99.90;;;;;;5066214;28;20052;-70
2022/09/11 11:33:17;;;;;;;1.90;1.08;;;19.80;99.90;;;;;;5065715;28;20594;-70
2022/09/11 11:36:18;;;;;;;1.05;0.70;;;19.50;99.90;;;;;;5067169;28;20144;-71
2022/09/11 11:39:07;;;;;;;1.90;0.85;;;19.40;99.90;;;;;;5064328;28;20075;-71
2022/09/11 11:41:40;;;;;;;1.05;0.70;;;19.50;99.90;;;;;;5076116;28;20055;-70
2022/09/11 11:44:17;;;;;;;2.55;0.80;;;19.40;99.90;;;;;;5067487;28;20040;-71
2022/09/11 11:46:51;;;;;;;4.20;0.75;;;19.70;99.90;;;;;;5067333;28;20159;-71
2022/09/11 11:49:44;;;;;;;2.40;1.10;;;19.50;99.90;;;;;;5065981;28;20481;-71
2022/09/11 11:52:34;;;;;;;2.75;1.50;;;19.30;99.90;;;;;;5067966;28;20075;-70
2022/09/11 11:55:16;;;;;;;3.67;1.30;;;19.30;99.90;;;;;;5071502;28;20107;-79
2022/09/11 11:57:52;;;;;;;1.98;1.52;;;19.20;99.90;;;;;;5071433;28;20113;-77
2022/09/11 12:00:18;;;;;;;2.80;1.33;;;19.20;99.90;;;;;;5055021;28;20052;-76
2022/09/11 12:02:56;;;;;;;1.55;1.20;;;19.10;99.90;;;;;;5072111;28;20044;-76
2022/09/11 12:05:25;;;;;;;2.08;1.20;;;19.30;99.90;;;;;;5073224;28;20048;-79
2022/09/11 12:07:52;;;;;;;2.33;1.50;;;19.30;99.90;;;;;;5074517;28;20060;-76
2022/09/11 12:10:39;;;;;;;3.97;1.50;;;19.10;99.90;;;;;;5075539;28;20412;-77
2022/09/11 12:13:11;;;;;;;4.07;1.40;;;19.20;99.90;;;;;;5061338;28;20114;-76
2022/09/11 12:15:38;;;;;;;3.20;2.08;;;19.00;99.90;;;;;;5080414;28;20050;-78
2022/09/11 12:18:23;;;;;;;6.28;1.95;;;18.90;99.90;;;;;;5083943;28;20052;-78
2022/09/11 12:20:48;;;;;;;3.03;1.83;;;19.00;99.90;;;;;;5080709;28;20055;-76
2022/09/11 12:23:29;;;;;;;3.22;1.73;;;18.80;99.90;;;;;;5080540;28;20045;-79
2022/09/11 12:26:18;;;;;;;4.47;2.33;;;18.80;99.90;;;;;;5071514;28;20048;-78
2022/09/11 12:28:45;;;;;;;5.15;2.70;;;18.50;99.90;;;;;;5072371;28;20040;-76
2022/09/11 12:31:16;;;;;;;5.70;2.83;;;18.50;99.90;;;;;;5072805;28;20049;-77
2022/09/11 12:33:42;;;;;;;5.03;3.83;;;18.40;99.90;;;;;;5053931;28;20109;-77
2022/09/11 12:36:11;;;;;;;5.70;2.97;;;18.70;99.90;;;;;;5070030;28;20099;-75
2022/09/11 12:38:45;;;;;;;8.10;3.45;;;18.60;99.90;;;;;;5072766;28;20052;-74
2022/09/11 12:41:33;;;;;;;8.18;3.63;;;18.60;99.90;;;;;;5070430;28;20056;-76
2022/09/11 12:44:04;;;;;;;6.22;3.70;;;18.60;99.90;;;;;;5070112;28;20098;-76
2022/09/11 12:46:29;;;;;;;7.88;3.90;;;18.70;99.90;;;;;;5069692;28;20110;-77
2022/09/11 12:49:04;;;;;;;3.33;2.70;;;18.60;99.90;;;;;;5072128;28;20040;-78
2022/09/11 12:51:32;;;;;;;6.38;3.40;;;18.60;99.90;;;;;;5070067;28;20051;-76
2022/09/11 12:54:00;;;;;;;4.65;3.15;;;18.50;99.90;;;;;;5071379;28;20054;-78
2022/09/11 12:56:29;;;;;;;5.20;3.05;;;18.80;99.90;;;;;;5072513;28;20040;-75
2022/09/11 12:59:03;;;;;;;4.38;3.25;;;18.90;99.90;;;;;;5071795;28;20055;-75
2022/09/11 13:01:32;;;;;;;3.60;3.05;;;18.70;99.90;;;;;;5077299;28;20388;-77